Watson, Canada
Current Conditions -  °F | °C
As of 7:13 AM on Thursday 27 Nov 2014 (Local Time) from CYBU Reporting Station
Light Snow Light Snow  
Wind Chill: -11°   Ceiling: 7000
Heat Index:   Visibility: 9mi
Dew Point:   Wind: 7mph
Humidity: 92%   Direction: 180°S
Pressure: 30.17"   Gusts: NA
Location:  52.13°N, 104.53°W
Report Text: CYBU 271313Z AUTO 18006KT 9SM -SN SCT023 OVC070 M17/M18 A3017 RMK SLP259
Loading
Personal Weather Stations






























Interactive Weather Map New forecast layout! Learn more

10-Day Weather Forecast

Advertisements
Track Severe Weather on mobile